Time;durP1;ratioP1;P1;durP2;ratioP2;P2;SDS_P1;SDS_P2;PMS_P1;PMS_P2;Temp;Humidity;BMP_temperature;BMP_pressure;BME280_temperature;BME280_humidity;BME280_pressure;Samples;Min_cycle;Max_cycle;Signal;HPM_P1;HPM_P2
2022/03/03 00:02:03;;;;;;;;;30.33;27.33;;;;;8.57;63.10;99473.72;5035587;28;45405;-73
2022/03/03 00:04:28;;;;;;;;;32.33;26.67;;;;;8.57;63.06;99472.88;5035972;28;45503;-73
2022/03/03 00:06:54;;;;;;;;;30.67;27.33;;;;;8.56;63.07;99471.13;5017740;28;45923;-73
2022/03/03 00:09:19;;;;;;;;;26.00;23.33;;;;;8.55;63.30;99464.16;5031674;28;45310;-73
2022/03/03 00:11:45;;;;;;;;;33.33;27.67;;;;;8.55;63.25;99464.16;5033349;28;45395;-73
2022/03/03 00:14:10;;;;;;;;;25.00;22.00;;;;;8.56;63.33;99466.75;5018045;28;45481;-73
2022/03/03 00:16:36;;;;;;;;;21.67;20.67;;;;;8.58;63.05;99469.34;5035795;28;45875;-73
2022/03/03 00:19:02;;;;;;;;;28.33;26.33;;;;;8.57;63.12;99468.47;5035202;28;45460;-73
2022/03/03 00:21:28;;;;;;;;;22.33;21.33;;;;;8.57;63.19;99464.97;5035676;28;45511;-73
2022/03/03 00:23:53;;;;;;;;;23.33;22.00;;;;;8.56;63.18;99460.63;5035578;28;45323;-73
2022/03/03 00:26:19;;;;;;;;;31.00;28.67;;;;;8.56;63.38;99460.63;5035626;28;45370;-73
2022/03/03 00:28:44;;;;;;;;;34.67;30.67;;;;;8.55;63.50;99466.78;5016368;28;45370;-73
2022/03/03 00:31:10;;;;;;;;;29.00;27.67;;;;;8.55;63.63;99470.28;5032415;28;45390;-73
2022/03/03 00:33:35;;;;;;;;;25.00;24.67;;;;;8.54;63.17;99463.31;5035463;28;45482;-73
2022/03/03 00:36:01;;;;;;;;;31.00;28.00;;;;;8.54;63.33;99468.56;5035615;28;46032;-73
2022/03/03 00:38:27;;;;;;;;;32.33;30.00;;;;;8.53;63.25;99466.84;5035491;28;45354;-73
2022/03/03 00:40:52;;;;;;;;;36.00;31.00;;;;;8.49;63.78;99461.72;5034367;28;45398;-73
2022/03/03 00:43:19;;;;;;;;;33.00;30.33;;;;;8.46;63.77;99461.78;5035597;28;45403;-73
2022/03/03 00:45:44;;;;;;;;;37.67;33.33;;;;;8.41;64.05;99461.91;5035004;28;45480;-74
2022/03/03 00:48:10;;;;;;;;;36.00;29.67;;;;;8.39;64.89;99464.56;5035374;28;45539;-73
2022/03/03 00:50:36;;;;;;;;;36.67;34.00;;;;;8.34;64.81;99462.97;5011468;28;45518;-73
2022/03/03 00:53:01;;;;;;;;;34.67;26.00;;;;;8.30;65.32;99458.66;5035366;28;45473;-73
2022/03/03 00:55:27;;;;;;;;;34.67;32.33;;;;;8.22;64.67;99456.22;5035125;28;45464;-73
2022/03/03 00:57:52;;;;;;;;;42.33;36.00;;;;;8.18;64.73;99458.97;5035038;28;45490;-73
2022/03/03 01:00:20;;;;;;;;;40.33;36.00;;;;;8.13;64.67;99456.47;5023285;28;45604;-73
2022/03/03 01:02:48;;;;;;;;;45.67;36.67;;;;;8.11;64.98;99457.38;5035458;28;45332;-73
2022/03/03 01:05:13;;;;;;;;;42.67;37.33;;;;;8.11;64.92;99458.25;5033065;28;45407;-73
2022/03/03 01:07:39;;;;;;;;;43.00;35.33;;;;;8.13;64.92;99456.47;5034812;28;45625;-73
2022/03/03 01:10:06;;;;;;;;;31.67;27.33;;;;;8.13;65.01;99456.47;5032660;28;45559;-73
2022/03/03 01:12:32;;;;;;;;;34.00;30.00;;;;;8.12;64.63;99456.50;5034803;28;45440;-73
2022/03/03 01:14:57;;;;;;;;;35.67;30.00;;;;;8.11;64.78;99457.38;5034167;28;45448;-73
2022/03/03 01:17:24;;;;;;;;;41.67;33.67;;;;;8.11;64.97;99453.00;5034007;28;45359;-73
2022/03/03 01:19:50;;;;;;;;;37.67;32.33;;;;;8.10;65.68;99455.66;5005213;28;46326;-73
2022/03/03 01:22:16;;;;;;;;;36.00;33.00;;;;;8.06;65.46;99454.88;5038984;28;45366;-73
2022/03/03 01:24:42;;;;;;;;;30.00;27.00;;;;;8.04;65.49;99449.66;5030958;28;45584;-73
2022/03/03 01:27:08;;;;;;;;;34.33;32.00;;;;;8.07;65.65;99453.97;5016816;28;45331;-73
2022/03/03 01:29:33;;;;;;;;;43.33;34.00;;;;;8.07;65.72;99446.97;5030233;28;45392;-73
2022/03/03 01:31:59;;;;;;;;;40.33;32.33;;;;;8.06;65.93;99447.84;5034627;28;45220;-73
2022/03/03 01:34:24;;;;;;;;;38.67;34.00;;;;;8.03;65.42;99437.47;5031405;28;45590;-73
2022/03/03 01:36:50;;;;;;;;;33.00;28.67;;;;;7.99;65.61;99434.94;5033852;28;45461;-73
2022/03/03 01:39:15;;;;;;;;;32.00;29.33;;;;;7.98;66.03;99444.56;5032212;28;45456;-73
2022/03/03 01:41:41;;;;;;;;;43.67;34.33;;;;;7.96;65.82;99441.13;5013823;28;45506;-73
2022/03/03 01:44:08;;;;;;;;;46.33;36.33;;;;;7.95;66.02;99434.13;5032525;28;45493;-73
2022/03/03 01:46:34;;;;;;;;;37.33;33.00;;;;;7.91;65.81;99435.09;5033788;28;45525;-73
2022/03/03 01:49:00;;;;;;;;;38.33;35.00;;;;;7.90;65.48;99436.00;5014020;28;46359;-73
2022/03/03 01:51:25;;;;;;;;;36.67;33.67;;;;;7.88;65.22;99429.06;5026575;28;45352;-73
2022/03/03 01:53:51;;;;;;;;;33.33;29.33;;;;;7.89;64.36;99428.16;5036080;28;46052;-73
2022/03/03 01:56:17;;;;;;;;;35.00;32.00;;;;;7.88;65.17;99418.56;5027365;28;45402;-73
2022/03/03 01:58:44;;;;;;;;;38.33;35.00;;;;;7.87;65.54;99422.13;5037224;28;45552;-73
2022/03/03 02:01:10;;;;;;;;;44.67;36.33;;;;;7.86;65.61;99417.75;5037501;28;45404;-73
2022/03/03 02:03:35;;;;;;;;;50.67;37.00;;;;;7.85;66.11;99411.66;5037599;28;45452;-73
2022/03/03 02:06:01;;;;;;;;;33.67;27.33;;;;;7.83;65.80;99410.81;5029944;28;45484;-73
2022/03/03 02:08:28;;;;;;;;;43.67;36.00;;;;;7.85;65.94;99409.03;5037516;28;46099;-73
2022/03/03 02:10:54;;;;;;;;;35.33;33.33;;;;;7.85;65.73;99409.03;5030043;28;45468;-73
2022/03/03 02:13:20;;;;;;;;;33.00;32.00;;;;;7.87;65.18;99407.22;5037763;28;45382;-73
2022/03/03 02:15:55;;;;;;;;;32.33;30.00;;;;;7.88;64.96;99411.56;5030863;28;45403;-73
2022/03/03 02:18:21;;;;;;;;;33.00;30.33;;;;;7.90;65.08;99404.50;5036463;28;45410;-73
2022/03/03 02:20:47;;;;;;;;;35.00;29.67;;;;;7.94;64.88;99397.41;5018918;28;45413;-74
2022/03/03 02:23:13;;;;;;;;;34.00;33.33;;;;;7.94;65.24;99393.03;5019537;28;45697;-73
2022/03/03 02:25:39;;;;;;;;;36.00;31.33;;;;;7.95;65.14;99394.75;5033009;28;45551;-73
2022/03/03 02:28:05;;;;;;;;;37.33;34.00;;;;;7.97;65.08;99385.09;5037258;28;46061;-73
2022/03/03 02:30:31;;;;;;;;;43.00;33.67;;;;;7.97;65.24;99392.09;5033763;28;45554;-74
2022/03/03 02:32:56;;;;;;;;;41.00;35.00;;;;;7.94;65.03;99393.03;5037321;28;45458;-73
2022/03/03 02:35:22;;;;;;;;;39.00;34.00;;;;;7.95;65.62;99391.28;5015790;28;45463;-73
2022/03/03 02:37:47;;;;;;;;;39.67;34.00;;;;;7.94;64.96;99384.31;5037063;28;45481;-74
2022/03/03 02:40:22;;;;;;;;;33.67;28.00;;;;;7.92;65.15;99391.34;5013565;28;45496;-73
2022/03/03 02:42:52;;;;;;;;;26.67;19.00;;;;;7.88;65.03;99385.31;5034318;28;45363;-73
2022/03/03 02:45:18;;;;;;;;;24.00;24.00;;;;;7.84;65.06;99378.44;5035077;28;45567;-73
2022/03/03 02:47:45;;;;;;;;;34.33;30.67;;;;;7.83;64.38;99387.19;5037069;28;45771;-73
2022/03/03 02:50:11;;;;;;;;;33.33;31.67;;;;;7.80;64.29;99381.16;5037002;28;45566;-73
2022/03/03 02:52:36;;;;;;;;;33.00;29.33;;;;;7.79;63.97;99379.44;5019414;28;45544;-73
2022/03/03 02:55:04;;;;;;;;;35.00;28.00;;;;;7.79;64.18;99382.06;5026251;28;45439;-73
2022/03/03 03:00:14;;;;;;;;;36.67;29.00;;;;;7.80;64.05;99376.78;5036555;28;45488;-73
2022/03/03 03:02:40;;;;;;;;;32.33;29.00;;;;;7.80;63.86;99371.53;5035825;28;45402;-73
2022/03/03 03:05:05;;;;;;;;;35.67;30.00;;;;;7.82;63.85;99376.75;5036835;28;45358;-73
2022/03/03 03:07:31;;;;;;;;;27.33;26.00;;;;;7.82;63.81;99374.97;5036462;28;45452;-73
2022/03/03 03:09:57;;;;;;;;;38.00;33.67;;;;;7.82;64.36;99364.47;5018501;28;45586;-73
2022/03/03 03:12:22;;;;;;;;;31.67;28.00;;;;;7.81;64.14;99362.75;5036418;28;45869;-74
2022/03/03 03:14:48;;;;;;;;;38.00;25.67;;;;;7.81;64.40;99360.13;5036080;28;45370;-73
2022/03/03 03:17:13;;;;;;;;;37.33;31.33;;;;;7.81;64.34;99362.75;5036807;28;46457;-73
2022/03/03 03:19:38;;;;;;;;;32.33;28.67;;;;;7.83;64.39;99365.34;5036511;28;45424;-73
2022/03/03 03:22:04;;;;;;;;;31.33;28.67;;;;;7.86;64.31;99360.88;5036349;28;45394;-73
2022/03/03 03:24:30;;;;;;;;;26.33;25.00;;;;;7.85;63.91;99361.78;5030243;28;45465;-73
2022/03/03 03:26:55;;;;;;;;;39.67;34.33;;;;;7.87;63.99;99352.09;5037062;28;46214;-73
2022/03/03 03:29:21;;;;;;;;;23.00;21.33;;;;;7.88;63.78;99360.81;5036222;28;45366;-73
2022/03/03 03:31:46;;;;;;;;;29.67;28.67;;;;;7.88;63.53;99358.19;5036648;28;45471;-73
2022/03/03 03:34:12;;;;;;;;;33.67;30.00;;;;;7.85;63.61;99356.53;5036315;28;45469;-74
2022/03/03 03:36:37;;;;;;;;;29.00;24.00;;;;;7.86;63.37;99350.38;5027032;28;45473;-74
2022/03/03 03:39:03;;;;;;;;;32.67;29.00;;;;;7.86;63.61;99353.00;5032715;28;45396;-73
2022/03/03 03:41:29;;;;;;;;;33.00;30.33;;;;;7.86;63.75;99353.00;5036625;28;45486;-74
2022/03/03 03:43:55;;;;;;;;;34.67;28.67;;;;;7.86;63.90;99350.38;5017926;28;45482;-73
2022/03/03 03:46:20;;;;;;;;;37.00;30.67;;;;;7.85;63.86;99343.41;5035841;28;45378;-73
2022/03/03 03:48:46;;;;;;;;;42.00;37.67;;;;;7.84;64.09;99341.69;5017781;28;45411;-73
2022/03/03 03:51:11;;;;;;;;;28.67;26.00;;;;;7.84;64.39;99338.19;5036379;28;45323;-73
2022/03/03 03:53:37;;;;;;;;;35.33;30.67;;;;;7.82;64.76;99335.59;5036094;28;45431;-73
2022/03/03 03:56:02;;;;;;;;;35.67;33.67;;;;;7.82;65.06;99338.22;5007687;28;48388;-73
2022/03/03 03:58:28;;;;;;;;;39.00;33.67;;;;;7.82;64.96;99334.75;5036169;28;45275;-73
2022/03/03 04:00:53;;;;;;;;;35.00;29.33;;;;;7.81;65.03;99330.41;5018043;28;45238;-73
2022/03/03 04:03:19;;;;;;;;;40.00;33.00;;;;;7.79;65.16;99321.69;5035674;28;45442;-73
2022/03/03 04:05:44;;;;;;;;;35.67;33.00;;;;;7.77;65.31;99326.13;5029112;28;46323;-73
2022/03/03 04:08:09;;;;;;;;;39.67;34.33;;;;;7.76;65.46;99325.25;5035367;28;45380;-73
2022/03/03 04:10:36;;;;;;;;;40.67;35.33;;;;;7.75;65.48;99322.66;5028486;28;45586;-73
2022/03/03 04:13:01;;;;;;;;;38.67;32.67;;;;;7.71;65.60;99321.88;5035278;28;45487;-73
2022/03/03 04:15:27;;;;;;;;;31.33;26.00;;;;;7.70;65.62;99320.19;5035257;28;45906;-73
2022/03/03 04:17:52;;;;;;;;;41.33;37.00;;;;;7.69;65.39;99319.31;5035591;28;45355;-73
2022/03/03 04:20:22;;;;;;;;;44.00;35.67;;;;;7.69;65.58;99313.22;5033980;28;45491;-73
2022/03/03 04:22:48;;;;;;;;;45.67;38.33;;;;;7.68;65.75;99309.72;5032944;28;45494;-73
2022/03/03 04:25:14;;;;;;;;;37.00;33.67;;;;;7.68;65.46;99309.72;5032868;28;45453;-73
2022/03/03 04:27:39;;;;;;;;;42.33;37.00;;;;;7.69;65.47;99308.81;5033910;28;45358;-73
2022/03/03 04:30:07;;;;;;;;;49.33;41.00;;;;;7.69;65.54;99302.72;5031756;28;45531;-73
2022/03/03 04:32:32;;;;;;;;;53.33;40.67;;;;;7.67;65.39;99304.50;5035592;28;45452;-73
2022/03/03 04:34:58;;;;;;;;;53.00;42.67;;;;;7.65;65.16;99298.44;5037691;28;46356;-74
2022/03/03 04:37:23;;;;;;;;;56.67;44.67;;;;;7.61;65.15;99299.41;5029805;28;45394;-73
2022/03/03 04:39:49;;;;;;;;;54.33;42.00;;;;;7.58;64.97;99299.47;5035050;28;45430;-73
2022/03/03 04:42:14;;;;;;;;;50.67;39.67;;;;;7.56;65.36;99294.28;5034837;28;45409;-73
2022/03/03 04:44:39;;;;;;;;;47.33;38.00;;;;;7.56;65.22;99298.66;5034306;28;45470;-73
2022/03/03 04:47:06;;;;;;;;;45.33;39.67;;;;;7.55;65.70;99294.31;5035620;28;45383;-74
2022/03/03 04:49:31;;;;;;;;;50.33;41.00;;;;;7.54;65.41;99293.44;5035512;28;45488;-73
2022/03/03 04:51:57;;;;;;;;;55.67;44.67;;;;;7.53;65.60;99286.50;5035462;28;45291;-73
2022/03/03 04:54:22;;;;;;;;;60.33;47.00;;;;;7.53;65.46;99290.88;5030946;28;45399;-73
2022/03/03 04:56:48;;;;;;;;;61.33;49.00;;;;;7.51;65.44;99287.44;5035248;28;45723;-73
2022/03/03 04:59:14;;;;;;;;;62.33;49.67;;;;;7.47;65.31;99280.53;5034172;28;45429;-73
2022/03/03 05:01:39;;;;;;;;;64.50;50.75;;;;;7.44;65.48;99286.72;5032600;28;45422;-74
2022/03/03 05:04:05;;;;;;;;;66.50;53.00;;;;;7.42;65.51;99280.63;5035908;28;46634;-73
2022/03/03 05:06:30;;;;;;;;;61.25;50.50;;;;;7.40;65.44;99277.19;5029999;28;45446;-73
2022/03/03 05:08:56;;;;;;;;;54.00;44.33;;;;;7.36;65.65;99270.31;5035196;28;45628;-73
2022/03/03 05:11:21;;;;;;;;;68.00;53.25;;;;;7.36;65.59;99272.94;5034635;28;45421;-74
2022/03/03 05:13:50;;;;;;;;;65.67;52.00;;;;;7.34;65.76;99270.34;5033231;28;46167;-73
2022/03/03 05:16:15;;;;;;;;;70.50;52.75;;;;;7.32;65.62;99269.53;5029238;28;45385;-73
2022/03/03 05:18:41;;;;;;;;;58.67;45.00;;;;;7.30;65.48;99262.59;5031516;28;45522;-73
2022/03/03 05:21:06;;;;;;;;;60.00;46.33;;;;;7.28;65.69;99259.16;5031606;28;45422;-73
2022/03/03 05:23:32;;;;;;;;;51.00;43.00;;;;;7.25;65.78;99259.22;5032324;28;45516;-73
2022/03/03 05:25:57;;;;;;;;;42.67;36.67;;;;;7.21;65.89;99254.94;5031586;28;45408;-73
2022/03/03 05:28:22;;;;;;;;;52.33;41.67;;;;;7.18;65.91;99257.66;5034615;28;45352;-74
2022/03/03 05:30:48;;;;;;;;;51.00;42.67;;;;;7.16;65.74;99252.44;5030706;28;45403;-73
2022/03/03 05:33:13;;;;;;;;;52.33;43.33;;;;;7.15;65.99;99258.59;5033424;28;45381;-74
2022/03/03 05:35:40;;;;;;;;;50.00;40.33;;;;;7.13;66.25;99254.28;5014036;28;45401;-74
2022/03/03 05:38:05;;;;;;;;;53.33;44.00;;;;;7.10;66.15;99260.44;5033514;28;45440;-73
2022/03/03 05:40:31;;;;;;;;;57.67;44.33;;;;;7.07;66.15;99250.03;5013463;28;45475;-73
2022/03/03 05:42:57;;;;;;;;;54.33;44.00;;;;;7.07;66.42;99259.66;5034241;28;45557;-73
2022/03/03 05:45:22;;;;;;;;;50.00;43.67;;;;;7.06;66.24;99257.94;5032341;28;45528;-74
2022/03/03 05:47:48;;;;;;;;;55.67;45.00;;;;;7.03;66.18;99255.41;5033972;28;45378;-73
2022/03/03 05:50:15;;;;;;;;;51.33;42.67;;;;;7.03;66.42;99252.78;5033360;28;45426;-73
2022/03/03 05:52:40;;;;;;;;;48.67;41.33;;;;;7.02;66.86;99257.16;5033096;28;45501;-73
2022/03/03 05:55:07;;;;;;;;;55.00;41.67;;;;;6.99;66.60;99254.63;5025814;28;45395;-73
2022/03/03 05:57:32;;;;;;;;;55.33;44.67;;;;;6.98;66.64;99260.75;5033301;28;45465;-73
2022/03/03 06:00:02;;;;;;;;;50.67;43.33;;;;;6.97;66.74;99251.16;5033352;28;45448;-73
2022/03/03 06:02:29;;;;;;;;;53.33;45.00;;;;;6.96;66.77;99249.44;5033932;28;45568;-74
2022/03/03 06:04:56;;;;;;;;;54.67;42.67;;;;;6.93;66.72;99242.50;5009281;28;45512;-73
2022/03/03 06:07:29;;;;;;;;;59.67;49.00;;;;;6.91;66.94;99251.28;5033750;28;45404;-73
2022/03/03 06:09:57;;;;;;;;;57.33;45.67;;;;;6.89;66.98;99248.72;5028266;28;45553;-73
2022/03/03 06:12:41;;;;;;;;;63.33;48.67;;;;;6.89;67.08;99255.69;5033404;28;46611;-73
2022/03/03 06:15:07;;;;;;;;;60.67;49.00;;;;;6.88;67.17;99243.50;5029296;28;45436;-73
2022/03/03 06:17:34;;;;;;;;;58.00;47.00;;;;;6.86;67.39;99251.41;5033983;28;45398;-73
2022/03/03 06:20:01;;;;;;;;;59.00;47.33;;;;;6.85;67.27;99247.06;5034378;28;45514;-72
2022/03/03 06:22:27;;;;;;;;;62.00;47.67;;;;;6.87;67.51;99255.72;5033208;28;46141;-76
2022/03/03 06:24:53;;;;;;;;;53.67;42.33;;;;;6.93;67.66;99254.75;5033064;28;45567;-64
2022/03/03 06:27:19;;;;;;;;;58.33;44.33;;;;;7.01;67.42;99252.81;5033794;28;45377;-67
2022/03/03 06:29:44;;;;;;;;;58.00;44.33;;;;;7.05;67.28;99249.19;5029095;28;45716;-64
2022/03/03 06:32:11;;;;;;;;;52.67;42.33;;;;;7.09;67.49;99253.47;5033415;28;46490;-66
2022/03/03 06:34:37;;;;;;;;;52.33;42.00;;;;;7.12;67.36;99249.94;5032491;28;45427;-66
2022/03/03 06:37:03;;;;;;;;;57.33;45.67;;;;;7.15;67.01;99249.88;5035084;28;45444;-66
2022/03/03 06:39:28;;;;;;;;;55.33;41.00;;;;;7.16;66.95;99244.59;5035756;28;45565;-66
2022/03/03 06:41:54;;;;;;;;;57.00;45.00;;;;;7.20;66.80;99248.88;5035838;28;46052;-66
2022/03/03 06:44:20;;;;;;;;;51.00;42.00;;;;;7.23;67.10;99254.00;5035461;28;45392;-65
2022/03/03 06:46:46;;;;;;;;;46.67;39.67;;;;;7.26;67.09;99253.06;5033393;28;45417;-66
2022/03/03 06:49:12;;;;;;;;;55.33;45.00;;;;;7.27;66.99;99260.03;5033009;28;45350;-66
2022/03/03 06:51:41;;;;;;;;;54.00;42.33;;;;;7.29;67.00;99253.88;5027746;28;45339;-66
2022/03/03 06:54:12;;;;;;;;;52.33;43.67;;;;;7.32;67.07;99248.56;5035394;28;45431;-66
2022/03/03 06:56:45;;;;;;;;;57.00;45.33;;;;;7.36;66.90;99257.22;5032219;28;45433;-66
2022/03/03 06:59:14;;;;;;;;;55.00;44.67;;;;;7.40;66.87;99252.72;5021900;28;45458;-66
2022/03/03 07:01:42;;;;;;;;;58.00;45.00;;;;;7.43;67.05;99248.28;4998420;28;47121;-65
2022/03/03 07:04:10;;;;;;;;;57.00;45.67;;;;;7.45;66.72;99246.47;5031866;28;45575;-66
2022/03/03 07:06:36;;;;;;;;;61.00;46.67;;;;;7.47;66.73;99244.69;5029937;28;45359;-65
2022/03/03 07:09:03;;;;;;;;;53.00;43.33;;;;;7.50;66.73;99247.22;5035333;28;45508;-66
2022/03/03 07:11:29;;;;;;;;;49.67;40.67;;;;;7.54;66.60;99250.63;5035873;28;45826;-65
2022/03/03 07:13:58;;;;;;;;;49.00;40.33;;;;;7.55;66.35;99252.31;5034796;28;45548;-65
2022/03/03 07:16:45;;;;;;;;;47.33;39.67;;;;;7.58;66.50;99249.63;5031853;28;45361;-65
2022/03/03 07:19:25;;;;;;;;;46.00;37.00;;;;;7.63;66.46;99253.88;5033833;28;45567;-65
2022/03/03 07:22:32;;;;;;;;;52.67;42.00;;;;;7.67;66.26;99247.66;5031162;28;45492;-65
2022/03/03 07:25:06;;;;;;;;;54.00;42.00;;;;;7.69;66.19;99245.00;4973474;28;45408;-65
2022/03/03 07:27:33;;;;;;;;;51.33;43.67;;;;;7.71;66.43;99249.25;4973367;28;45419;-66
2022/03/03 07:30:04;;;;;;;;;50.33;40.67;;;;;7.74;66.15;99258.81;5005402;28;45473;-65
2022/03/03 07:32:35;;;;;;;;;48.67;40.33;;;;;7.77;65.86;99250.00;5016846;28;46782;-65
2022/03/03 07:35:14;;;;;;;;;45.67;40.00;;;;;7.78;66.20;99246.50;5021651;28;45457;-65
2022/03/03 07:37:55;;;;;;;;;49.33;40.67;;;;;7.81;66.04;99255.16;5029850;28;45499;-66
2022/03/03 07:40:21;;;;;;;;;51.67;40.33;;;;;7.86;66.02;99255.91;5034519;28;45423;-66
2022/03/03 07:42:46;;;;;;;;;50.67;43.33;;;;;7.92;65.80;99262.72;5033104;28;45696;-65
2022/03/03 07:45:12;;;;;;;;;61.33;48.67;;;;;7.99;65.46;99256.41;5028748;28;45460;-65
2022/03/03 07:47:39;;;;;;;;;52.00;40.00;;;;;8.03;65.45;99253.66;5034580;28;45453;-65
2022/03/03 07:50:06;;;;;;;;;52.00;41.33;;;;;8.12;65.13;99255.16;5030458;28;45480;-66
2022/03/03 07:52:32;;;;;;;;;51.33;42.33;;;;;8.21;65.19;99254.06;5016870;28;46992;-66
2022/03/03 07:54:57;;;;;;;;;53.67;43.00;;;;;8.29;64.60;99258.19;5033314;28;45910;-66
2022/03/03 07:57:32;;;;;;;;;56.33;46.67;;;;;8.38;64.61;99249.19;5031666;28;45386;-66
2022/03/03 08:00:05;;;;;;;;;55.00;44.00;;;;;8.48;64.42;99245.41;5033537;28;45395;-67
2022/03/03 08:02:32;;;;;;;;;56.33;44.67;;;;;8.56;63.92;99247.78;5034027;28;45389;-66
2022/03/03 08:04:59;;;;;;;;;55.33;45.67;;;;;8.59;63.75;99242.44;5029608;28;45471;-67
2022/03/03 08:07:26;;;;;;;;;59.00;42.67;;;;;8.65;63.57;99239.63;5034335;28;45424;-65
2022/03/03 08:09:58;;;;;;;;;53.67;44.33;;;;;8.71;63.48;99235.03;5025943;28;45526;-65
2022/03/03 08:12:25;;;;;;;;;58.33;46.67;;;;;8.78;63.34;99229.59;5016577;28;47312;-65
2022/03/03 08:14:50;;;;;;;;;54.33;45.00;;;;;8.87;63.10;99237.22;5030979;28;45576;-66
2022/03/03 08:17:18;;;;;;;;;53.00;39.33;;;;;8.96;62.95;99239.53;5034490;28;45556;-66
2022/03/03 08:19:44;;;;;;;;;50.33;42.00;;;;;9.03;62.81;99230.56;5029758;28;45381;-65
2022/03/03 08:22:12;;;;;;;;;55.00;44.00;;;;;9.13;62.42;99226.72;5034122;28;46079;-66
2022/03/03 08:24:43;;;;;;;;;54.33;43.00;;;;;9.25;62.40;99236.81;5031554;28;45547;-66
2022/03/03 08:27:10;;;;;;;;;52.67;44.00;;;;;9.32;61.98;99238.34;5034912;28;45437;-65
2022/03/03 08:29:35;;;;;;;;;51.67;43.00;;;;;9.34;61.76;99233.91;5014133;28;45536;-66
2022/03/03 08:32:02;;;;;;;;;51.33;42.00;;;;;9.37;61.67;99231.19;5016091;28;47117;-66
2022/03/03 08:34:39;;;;;;;;;56.67;42.33;;;;;9.43;61.59;99236.22;5031260;28;45374;-66
2022/03/03 08:37:11;;;;;;;;;46.67;39.00;;;;;9.55;61.25;99231.47;5034584;28;45376;-66
2022/03/03 08:39:38;;;;;;;;;51.67;42.00;;;;;9.65;61.10;99227.59;5033468;28;45476;-66
2022/03/03 08:42:08;;;;;;;;;47.33;38.33;;;;;9.74;60.77;99227.25;5026692;28;45309;-65
2022/03/03 08:44:36;;;;;;;;;53.33;42.33;;;;;9.80;60.35;99224.44;5032110;28;45478;-66
2022/03/03 08:47:05;;;;;;;;;50.67;41.00;;;;;9.86;60.54;99226.84;5027192;28;45489;-65
2022/03/03 08:49:39;;;;;;;;;49.67;41.33;;;;;9.93;60.13;99228.34;5013460;28;45494;-65
2022/03/03 08:52:06;;;;;;;;;51.33;42.00;;;;;10.00;59.73;99226.34;5038692;28;45648;-65
2022/03/03 08:54:31;;;;;;;;;47.00;38.33;;;;;10.00;59.36;99216.69;5031778;28;45489;-66
2022/03/03 08:56:57;;;;;;;;;51.00;42.00;;;;;10.01;59.33;99223.66;5028076;28;45450;-65
2022/03/03 08:59:23;;;;;;;;;49.67;41.00;;;;;10.07;59.24;99218.16;5009701;28;45746;-66
2022/03/03 09:01:51;;;;;;;;;56.33;44.00;;;;;10.12;59.16;99218.88;5012871;28;45677;-67
2022/03/03 09:04:17;;;;;;;;;51.00;41.33;;;;;10.15;59.17;99210.84;5031751;28;45569;-66
2022/03/03 09:06:44;;;;;;;;;41.33;33.00;;;;;10.17;58.46;99210.78;5028668;28;45301;-65
2022/03/03 09:09:09;;;;;;;;;53.00;43.00;;;;;10.18;58.54;99211.66;5031923;28;45389;-65
2022/03/03 09:11:35;;;;;;;;;46.67;38.67;;;;;10.22;58.45;99211.50;5011383;28;45797;-66
2022/03/03 09:14:00;;;;;;;;;39.67;35.67;;;;;10.26;58.42;99204.34;5014249;28;45390;-66
2022/03/03 09:16:26;;;;;;;;;51.00;42.00;;;;;10.29;58.30;99207.72;5027728;28;46137;-66
2022/03/03 09:18:53;;;;;;;;;54.67;42.33;;;;;10.30;58.41;99204.19;5033271;28;45486;-65
2022/03/03 09:21:19;;;;;;;;;54.33;41.00;;;;;10.31;58.63;99195.34;5014147;28;47126;-66
2022/03/03 09:23:44;;;;;;;;;53.00;43.67;;;;;10.35;58.29;99191.69;5033876;28;45342;-66
2022/03/03 09:26:10;;;;;;;;;53.00;41.33;;;;;10.37;58.33;99189.00;5032302;28;45401;-67
2022/03/03 09:28:36;;;;;;;;;43.67;37.67;;;;;10.39;58.33;99181.91;5016047;28;45679;-66
2022/03/03 09:31:01;;;;;;;;;51.33;41.67;;;;;10.45;58.13;99185.16;5031442;28;45370;-66
2022/03/03 09:33:28;;;;;;;;;54.67;42.67;;;;;10.46;57.99;99176.31;5054116;28;45329;-66
2022/03/03 09:35:54;;;;;;;;;49.33;36.67;;;;;10.44;57.80;99178.16;5007612;28;45325;-66
2022/03/03 09:38:19;;;;;;;;;44.67;37.33;;;;;10.44;57.83;99166.75;5034052;28;45380;-65
2022/03/03 09:40:48;;;;;;;;;50.67;40.67;;;;;10.42;57.96;99168.59;5031331;28;45598;-67
2022/03/03 09:43:14;;;;;;;;;42.67;34.33;;;;;10.40;57.93;99171.28;5042449;28;45421;-65
2022/03/03 09:45:39;;;;;;;;;52.00;41.33;;;;;10.42;57.92;99166.81;5037180;28;45555;-65
2022/03/03 09:48:07;;;;;;;;;52.33;38.00;;;;;10.41;57.50;99173.00;5033633;28;45426;-65
2022/03/03 09:50:37;;;;;;;;;41.33;36.00;;;;;10.38;57.67;99172.28;5024136;28;45461;-66
2022/03/03 09:53:08;;;;;;;;;42.33;37.67;;;;;10.35;58.04;99165.34;5034855;28;45437;-66
2022/03/03 09:55:35;;;;;;;;;49.67;36.67;;;;;10.37;57.64;99174.06;5029281;28;45425;-66
2022/03/03 09:58:01;;;;;;;;;42.33;35.67;;;;;10.38;57.75;99174.91;5015777;28;45643;-66
2022/03/03 10:00:29;;;;;;;;;44.00;38.00;;;;;10.39;57.98;99168.72;5025740;28;45469;-66
2022/03/03 10:03:08;;;;;;;;;52.33;42.00;;;;;10.40;57.85;99158.09;5034339;28;45695;-66
2022/03/03 10:05:47;;;;;;;;;46.67;39.33;;;;;10.43;57.75;99165.03;5027522;28;45351;-66
2022/03/03 10:08:17;;;;;;;;;49.00;37.00;;;;;10.48;57.94;99160.44;5016635;28;45828;-66
2022/03/03 10:10:46;;;;;;;;;43.33;35.00;;;;;10.53;57.75;99158.50;5008210;28;48542;-66
2022/03/03 10:13:16;;;;;;;;;50.33;40.33;;;;;10.58;57.44;99158.31;5031705;28;45451;-66
2022/03/03 10:15:44;;;;;;;;;45.67;38.67;;;;;10.62;57.48;99159.91;5032765;28;45536;-66
2022/03/03 10:18:14;;;;;;;;;50.00;38.67;;;;;10.68;57.31;99152.63;5036165;28;45323;-65
2022/03/03 10:20:52;;;;;;;;;39.67;27.67;;;;;10.75;56.93;99156.72;5014639;28;47195;-65
2022/03/03 10:23:22;;;;;;;;;35.67;32.33;;;;;10.79;56.18;99149.53;5034661;28;45345;-66
2022/03/03 10:25:47;;;;;;;;;51.00;41.67;;;;;10.82;56.80;99152.91;5012520;28;45405;-66
2022/03/03 10:28:13;;;;;;;;;42.00;36.33;;;;;10.87;57.01;99146.59;5036786;28;45408;-66
2022/03/03 10:30:52;;;;;;;;;39.00;35.00;;;;;10.91;56.33;99149.03;5034213;28;45454;-66
2022/03/03 10:33:21;;;;;;;;;47.67;39.00;;;;;10.98;56.22;99142.59;5036765;28;45454;-66
2022/03/03 10:36:05;;;;;;;;;42.33;37.00;;;;;11.05;56.16;99143.22;5033034;28;45535;-65
2022/03/03 10:38:31;;;;;;;;;45.67;35.33;;;;;11.10;55.82;99144.72;5036567;28;45149;-65
2022/03/03 10:40:57;;;;;;;;;44.33;36.00;;;;;11.18;55.69;99144.41;5034622;28;45467;-65
2022/03/03 10:43:23;;;;;;;;;41.00;35.00;;;;;11.22;55.33;99135.44;5035121;28;45487;-66
2022/03/03 10:46:03;;;;;;;;;41.00;35.00;;;;;11.27;54.47;99129.94;5010993;28;45552;-66
2022/03/03 10:48:29;;;;;;;;;44.00;37.00;;;;;11.28;54.68;99126.38;5027899;28;45525;-66
2022/03/03 10:50:58;;;;;;;;;47.00;36.33;;;;;11.32;54.47;99130.63;5030100;28;45433;-66
2022/03/03 10:53:25;;;;;;;;;40.67;33.67;;;;;11.34;54.23;99123.50;5036904;28;45466;-66
2022/03/03 10:56:08;;;;;;;;;38.00;33.67;;;;;11.40;53.53;99121.44;5034949;28;45386;-66
2022/03/03 10:58:52;;;;;;;;;40.67;35.00;;;;;11.48;53.48;99114.06;5035868;28;45583;-66
2022/03/03 11:01:21;;;;;;;;;37.33;34.00;;;;;11.58;53.25;99111.00;5034449;28;45387;-66
2022/03/03 11:03:49;;;;;;;;;42.00;36.00;;;;;11.66;53.41;99104.47;5038857;28;45307;-66
2022/03/03 11:06:29;;;;;;;;;35.00;32.67;;;;;11.76;53.51;99097.00;5032582;28;45477;-66
2022/03/03 11:08:57;;;;;;;;;45.67;37.33;;;;;11.82;53.43;99097.59;5040147;28;45348;-66
2022/03/03 11:11:24;;;;;;;;;37.00;29.67;;;;;11.88;53.31;99096.47;5014839;28;47134;-65
2022/03/03 11:13:51;;;;;;;;;32.33;30.33;;;;;11.90;52.85;99091.13;5004120;28;45398;-66
2022/03/03 11:16:22;;;;;;;;;32.33;30.00;;;;;11.94;53.08;99085.59;5031130;28;45435;-66
2022/03/03 11:18:48;;;;;;;;;26.33;25.00;;;;;12.01;52.61;99087.03;5035769;28;45166;-66
2022/03/03 11:21:15;;;;;;;;;35.00;29.67;;;;;12.10;51.96;99091.88;5032018;28;45406;-66
2022/03/03 11:23:46;;;;;;;;;41.33;35.00;;;;;12.20;51.89;99082.63;5034621;28;45250;-66
2022/03/03 11:26:31;;;;;;;;;37.33;32.33;;;;;12.30;51.80;99079.53;5014507;28;45482;-68
2022/03/03 11:29:17;;;;;;;;;40.67;30.67;;;;;12.37;51.42;99071.25;5034381;28;45455;-67